Time;durP1;ratioP1;P1;durP2;ratioP2;P2;SDS_P1;SDS_P2;PMS_P1;PMS_P2;Temp;Humidity;BMP_temperature;BMP_pressure;BME280_temperature;BME280_humidity;BME280_pressure;Samples;Min_cycle;Max_cycle;Signal;HPM_P1;HPM_P2
2023/03/10 00:04:01;;;;;;;209.83;89.37;;;;;;;;;;10363545;28;20042;-79
2023/03/10 00:09:03;;;;;;;197.17;85.80;;;;;;;;;;10373709;28;20068;-79
2023/03/10 00:14:04;;;;;;;205.07;88.57;;;;;;;;;;10373378;28;20084;-79
2023/03/10 00:19:06;;;;;;;183.13;80.73;;;;;;;;;;10373771;28;20517;-80
2023/03/10 00:24:08;;;;;;;174.67;75.57;;;;;;;;;;10373658;28;20030;-83
2023/03/10 00:29:10;;;;;;;155.90;69.27;;;;;;;;;;10372529;28;20049;-79
2023/03/10 00:34:12;;;;;;;138.17;62.30;;;;;;;;;;10373615;28;20060;-79
2023/03/10 00:39:12;;;;;;;120.07;51.83;;;;;;;;;;10373086;28;20030;-79
2023/03/10 00:44:14;;;;;;;89.27;40.57;;;;;;;;;;10373172;28;20120;-80
2023/03/10 00:49:16;;;;;;;62.83;29.67;;;;;;;;;;10373563;28;20033;-81
2023/03/10 00:54:17;;;;;;;49.40;23.03;;;;;;;;;;10372611;28;20507;-79
2023/03/10 00:59:18;;;;;;;64.30;30.83;;;;;;;;;;10372974;28;20117;-82
2023/03/10 01:04:19;;;;;;;73.17;33.53;;;;;;;;;;10371685;28;20022;-81
2023/03/10 01:09:20;;;;;;;36.10;19.07;;;;;;;;;;10361235;28;20096;-81
2023/03/10 01:14:21;;;;;;;21.70;12.33;;;;;;;;;;10361300;28;20131;-79
2023/03/10 01:19:22;;;;;;;16.10;7.37;;;;;;;;;;10361359;28;20029;-81
2023/03/10 01:24:23;;;;;;;16.23;7.10;;;;;;;;;;10361575;28;20026;-80
2023/03/10 01:29:24;;;;;;;13.77;6.20;;;;;;;;;;10360686;28;20077;-79
2023/03/10 01:34:25;;;;;;;16.40;6.47;;;;;;;;;;10360670;28;20048;-79
2023/03/10 01:39:26;;;;;;;16.33;7.80;;;;;;;;;;10363118;28;20386;-79
2023/03/10 01:44:27;;;;;;;20.63;9.90;;;;;;;;;;10368408;28;20064;-79
2023/03/10 01:49:46;;;;;;;23.17;11.80;;;;;;;;;;10367974;28;20033;-82
2023/03/10 01:54:50;;;;;;;18.00;10.27;;;;;;;;;;10355774;28;20037;-82
2023/03/10 01:59:51;;;;;;;11.23;6.43;;;;;;;;;;10367892;28;20041;-80
2023/03/10 02:04:53;;;;;;;12.37;5.50;;;;;;;;;;10367284;28;20573;-82
2023/03/10 02:09:55;;;;;;;12.73;5.70;;;;;;;;;;10367801;28;20033;-79
2023/03/10 02:14:57;;;;;;;10.17;4.70;;;;;;;;;;10365748;28;20034;-82
2023/03/10 02:20:04;;;;;;;7.97;4.33;;;;;;;;;;10366915;28;20124;-79
2023/03/10 02:25:23;;;;;;;7.87;4.40;;;;;;;;;;10365928;28;20041;-80
2023/03/10 02:30:30;;;;;;;13.03;5.00;;;;;;;;;;10366183;28;20050;-79
2023/03/10 02:35:32;;;;;;;11.33;6.17;;;;;;;;;;10366182;28;20034;-79
2023/03/10 02:40:33;;;;;;;14.07;6.60;;;;;;;;;;10365984;28;20065;-80
2023/03/10 02:45:37;;;;;;;9.30;4.53;;;;;;;;;;10365514;28;20389;-82
2023/03/10 02:50:40;;;;;;;8.63;4.90;;;;;;;;;;10365318;28;20038;-85
2023/03/10 02:55:41;;;;;;;9.67;5.10;;;;;;;;;;10365516;28;20117;-79
2023/03/10 03:00:44;;;;;;;14.87;4.83;;;;;;;;;;10365578;28;20036;-84
2023/03/10 03:05:44;;;;;;;9.17;5.00;;;;;;;;;;10364463;28;20041;-79
2023/03/10 03:10:46;;;;;;;9.57;4.20;;;;;;;;;;10364834;28;20049;-79
2023/03/10 03:15:48;;;;;;;8.33;4.60;;;;;;;;;;10364844;28;20402;-81
2023/03/10 03:20:49;;;;;;;9.90;6.57;;;;;;;;;;10365231;28;20026;-79
2023/03/10 03:25:50;;;;;;;13.40;6.73;;;;;;;;;;10364045;28;20029;-80
2023/03/10 03:30:51;;;;;;;12.37;5.63;;;;;;;;;;10364046;28;20551;-83
2023/03/10 03:35:52;;;;;;;12.60;6.10;;;;;;;;;;10363445;28;20034;-79
2023/03/10 03:40:53;;;;;;;12.13;6.47;;;;;;;;;;10362986;28;20371;-82
2023/03/10 03:45:53;;;;;;;12.97;6.67;;;;;;;;;;10363739;28;20442;-79
2023/03/10 03:50:55;;;;;;;12.20;6.47;;;;;;;;;;10362645;28;20034;-81
2023/03/10 03:55:56;;;;;;;15.00;6.70;;;;;;;;;;10362774;28;20040;-79
2023/03/10 04:00:57;;;;;;;14.13;7.30;;;;;;;;;;10362722;28;20067;-79
2023/03/10 04:05:58;;;;;;;12.97;7.23;;;;;;;;;;10356528;28;20064;-80
2023/03/10 04:10:59;;;;;;;11.93;5.63;;;;;;;;;;10362722;28;20065;-80
2023/03/10 04:16:00;;;;;;;19.63;7.53;;;;;;;;;;10362522;28;20529;-80
2023/03/10 04:21:01;;;;;;;12.93;5.27;;;;;;;;;;10363007;28;20034;-82
2023/03/10 04:26:06;;;;;;;15.67;5.53;;;;;;;;;;10361498;28;20052;-82
2023/03/10 04:31:12;;;;;;;14.10;6.73;;;;;;;;;;10362505;28;20045;-79
2023/03/10 04:36:13;;;;;;;16.13;7.00;;;;;;;;;;10361791;28;20018;-79
2023/03/10 04:41:14;;;;;;;13.53;6.87;;;;;;;;;;10361972;28;20029;-80
2023/03/10 04:46:15;;;;;;;16.87;7.30;;;;;;;;;;10361657;28;20054;-80
2023/03/10 04:51:16;;;;;;;19.17;8.63;;;;;;;;;;10361508;28;20030;-82
2023/03/10 04:56:17;;;;;;;19.77;11.03;;;;;;;;;;10361651;28;20033;-79
2023/03/10 05:01:18;;;;;;;36.73;14.43;;;;;;;;;;10361587;28;20022;-80
2023/03/10 05:06:20;;;;;;;41.60;16.37;;;;;;;;;;10359340;28;20030;-81
2023/03/10 05:11:22;;;;;;;69.13;23.70;;;;;;;;;;10361250;28;20072;-81
2023/03/10 05:16:23;;;;;;;57.47;19.20;;;;;;;;;;10367493;28;20033;-79
2023/03/10 05:21:24;;;;;;;42.43;17.43;;;;;;;;;;10368735;28;20859;-82
2023/03/10 05:26:26;;;;;;;34.97;16.17;;;;;;;;;;10366749;28;20038;-79
2023/03/10 05:31:27;;;;;;;36.10;16.80;;;;;;;;;;10368236;28;20077;-78
2023/03/10 05:36:28;;;;;;;21.33;9.77;;;;;;;;;;10367988;28;20029;-78
2023/03/10 05:41:29;;;;;;;18.00;9.50;;;;;;;;;;10366971;28;20034;-78
2023/03/10 05:46:30;;;;;;;18.47;8.70;;;;;;;;;;10367411;28;20059;-77
2023/03/10 05:51:31;;;;;;;18.13;8.40;;;;;;;;;;10366456;28;20040;-78
2023/03/10 05:56:32;;;;;;;24.23;10.70;;;;;;;;;;10367800;28;20057;-81
2023/03/10 06:01:34;;;;;;;26.37;12.60;;;;;;;;;;10367150;28;20038;-79
2023/03/10 06:06:35;;;;;;;23.77;10.93;;;;;;;;;;10366296;28;20022;-78
2023/03/10 06:11:36;;;;;;;22.20;10.50;;;;;;;;;;10365643;28;20570;-78
2023/03/10 06:16:37;;;;;;;22.33;10.37;;;;;;;;;;10365966;28;20022;-80
2023/03/10 06:21:38;;;;;;;30.03;15.20;;;;;;;;;;10367325;28;20095;-77
2023/03/10 06:26:39;;;;;;;22.40;13.43;;;;;;;;;;10367608;28;20026;-81
2023/03/10 06:31:40;;;;;;;23.83;11.73;;;;;;;;;;10367717;28;20062;-81
2023/03/10 06:36:42;;;;;;;56.87;41.10;;;;;;;;;;10365521;28;20133;-79
2023/03/10 06:41:43;;;;;;;43.50;26.53;;;;;;;;;;10365347;28;20065;-78
2023/03/10 06:46:45;;;;;;;96.87;48.70;;;;;;;;;;10365228;28;20154;-80
2023/03/10 06:51:46;;;;;;;45.03;25.57;;;;;;;;;;10365731;28;20045;-79
2023/03/10 06:56:47;;;;;;;38.80;22.40;;;;;;;;;;10364904;28;20371;-79
2023/03/10 07:01:48;;;;;;;64.60;33.83;;;;;;;;;;10365342;28;20037;-79
2023/03/10 07:06:49;;;;;;;53.47;27.77;;;;;;;;;;10365070;28;20026;-79
2023/03/10 07:11:50;;;;;;;223.73;111.37;;;;;;;;;;10363671;28;20053;-80
2023/03/10 07:16:51;;;;;;;63.83;33.03;;;;;;;;;;10364142;28;20036;-82
2023/03/10 07:21:52;;;;;;;38.67;19.67;;;;;;;;;;10364174;28;20054;-80
2023/03/10 07:26:53;;;;;;;28.73;16.17;;;;;;;;;;10364206;28;20026;-81
2023/03/10 07:31:54;;;;;;;31.80;16.93;;;;;;;;;;10363641;28;20057;-81
2023/03/10 07:36:55;;;;;;;52.33;21.83;;;;;;;;;;10363094;28;20391;-81
2023/03/10 07:41:56;;;;;;;47.30;21.33;;;;;;;;;;10363602;28;20522;-81
2023/03/10 07:46:57;;;;;;;23.73;12.10;;;;;;;;;;10363090;28;20025;-80
2023/03/10 07:51:58;;;;;;;80.03;37.13;;;;;;;;;;10363012;28;20030;-81
2023/03/10 07:56:59;;;;;;;59.45;33.97;;;;;;;;;;10362601;28;20501;-79
2023/03/10 08:02:00;;;;;;;55.08;24.00;;;;;;;;;;10363626;28;20044;-82
2023/03/10 08:07:01;;;;;;;31.27;13.57;;;;;;;;;;10362036;28;20041;-82
2023/03/10 08:12:03;;;;;;;35.42;15.85;;;;;;;;;;10355725;28;20034;-80
2023/03/10 08:17:04;;;;;;;35.17;14.82;;;;;;;;;;10362601;28;20109;-79
2023/03/10 08:22:05;;;;;;;20.88;11.25;;;;;;;;;;10361715;28;20121;-80
2023/03/10 08:27:06;;;;;;;21.48;9.18;;;;;;;;;;10361679;28;20048;-79
2023/03/10 08:32:07;;;;;;;37.50;17.27;;;;;;;;;;10361061;28;20460;-79
2023/03/10 08:37:09;;;;;;;43.42;19.05;;;;;;;;;;10361822;28;20070;-79
2023/03/10 08:42:13;;;;;;;17.70;9.10;;;;;;;;;;10361874;28;20245;-80
2023/03/10 08:47:14;;;;;;;37.65;16.52;;;;;;;;;;10361219;28;20425;-79
2023/03/10 08:52:15;;;;;;;25.40;10.23;;;;;;;;;;10369051;28;20041;-79
2023/03/10 08:57:16;;;;;;;20.88;9.68;;;;;;;;;;10369335;28;20066;-78
2023/03/10 09:02:20;;;;;;;17.63;8.93;;;;;;;;;;10369241;28;20042;-81
2023/03/10 09:07:21;;;;;;;11.68;6.15;;;;;;;;;;10369709;28;20021;-82
2023/03/10 09:12:22;;;;;;;36.75;19.33;;;;;;;;;;10369581;28;20030;-81
2023/03/10 09:17:23;;;;;;;27.75;11.27;;;;;;;;;;10367001;28;20030;-82
2023/03/10 09:33:42;;;;;;;45.72;19.58;;;;;;;;;;10366499;28;20057;-78
2023/03/10 09:38:43;;;;;;;19.10;8.32;;;;;;;;;;10367050;28;20097;-81
2023/03/10 09:43:49;;;;;;;19.55;7.25;;;;;;;;;;10367670;28;20106;-80
2023/03/10 09:48:50;;;;;;;5.05;3.20;;;;;;;;;;10368049;28;20034;-79
2023/03/10 09:53:51;;;;;;;8.68;4.22;;;;;;;;;;10367492;28;20041;-81
2023/03/10 09:59:04;;;;;;;12.35;5.65;;;;;;;;;;10367372;28;20022;-79
2023/03/10 10:04:05;;;;;;;9.40;4.57;;;;;;;;;;10367025;28;20037;-80
2023/03/10 10:09:10;;;;;;;8.77;4.40;;;;;;;;;;10367883;28;20504;-80
2023/03/10 10:14:19;;;;;;;9.60;5.00;;;;;;;;;;10367124;28;20148;-79
2023/03/10 10:19:21;;;;;;;31.42;14.73;;;;;;;;;;10366678;28;20528;-79
2023/03/10 10:24:22;;;;;;;14.77;7.43;;;;;;;;;;10366593;28;20036;-79
2023/03/10 10:29:37;;;;;;;18.33;7.93;;;;;;;;;;10366504;28;20148;-79
2023/03/10 10:34:39;;;;;;;7.88;4.82;;;;;;;;;;10366324;28;20057;-79
2023/03/10 10:39:41;;;;;;;9.68;4.57;;;;;;;;;;10365699;28;20034;-80
2023/03/10 10:44:43;;;;;;;6.68;2.90;;;;;;;;;;10365610;28;20038;-82
2023/03/10 10:49:44;;;;;;;7.82;3.53;;;;;;;;;;10352292;28;20034;-79
2023/03/10 10:54:53;;;;;;;6.55;3.50;;;;;;;;;;10366142;28;20447;-79
2023/03/10 10:59:54;;;;;;;8.25;4.90;;;;;;;;;;10365724;28;20025;-82
2023/03/10 11:04:55;;;;;;;10.68;5.60;;;;;;;;;;10364808;28;20034;-79
2023/03/10 11:09:56;;;;;;;11.27;5.38;;;;;;;;;;10364834;28;20030;-81
2023/03/10 11:15:19;;;;;;;11.93;5.15;;;;;;;;;;10364054;28;20120;-79
2023/03/10 11:20:32;;;;;;;13.15;5.85;;;;;;;;;;10364443;28;20032;-81
2023/03/10 11:25:39;;;;;;;12.15;5.43;;;;;;;;;;10352013;28;20022;-82
2023/03/10 11:31:00;;;;;;;14.02;5.78;;;;;;;;;;10364146;28;20406;-79
2023/03/10 11:36:21;;;;;;;9.55;5.55;;;;;;;;;;10353661;28;20050;-79
2023/03/10 11:41:27;;;;;;;11.15;5.88;;;;;;;;;;10363979;28;20120;-79
2023/03/10 11:46:43;;;;;;;16.55;8.50;;;;;;;;;;10363528;28;20247;-81
2023/03/10 11:51:44;;;;;;;14.13;6.60;;;;;;;;;;10363219;28;20029;-80
2023/03/10 11:56:45;;;;;;;10.45;5.13;;;;;;;;;;10362804;28;20061;-82
2023/03/10 12:01:52;;;;;;;11.65;6.20;;;;;;;;;;10362970;28;20032;-79
2023/03/10 12:06:59;;;;;;;11.60;4.93;;;;;;;;;;10362921;28;20125;-79
2023/03/10 12:12:02;;;;;;;20.95;9.73;;;;;;;;;;10362776;28;20042;-79
2023/03/10 12:17:04;;;;;;;10.82;5.72;;;;;;;;;;10362011;28;20026;-81
2023/03/10 12:22:38;;;;;;;5.93;4.35;;;;;;;;;;10362049;28;20773;-79
2023/03/10 12:27:58;;;;;;;7.97;4.38;;;;;;;;;;10329001;28;20397;-80
2023/03/10 12:32:59;;;;;;;9.65;5.30;;;;;;;;;;10361145;28;20062;-80
2023/03/10 12:38:19;;;;;;;13.70;5.97;;;;;;;;;;10360055;28;20077;-80
2023/03/10 12:43:39;;;;;;;15.02;6.50;;;;;;;;;;10362603;28;20084;-80
2023/03/10 12:48:43;;;;;;;13.82;7.85;;;;;;;;;;10361864;28;20058;-79
2023/03/10 12:53:52;;;;;;;12.57;8.38;;;;;;;;;;10362096;28;20042;-82
2023/03/10 12:58:57;;;;;;;20.80;9.30;;;;;;;;;;10361696;28;20473;-81
2023/03/10 13:03:58;;;;;;;11.75;5.70;;;;;;;;;;10361691;28;20037;-81
2023/03/10 13:09:00;;;;;;;11.23;5.25;;;;;;;;;;10356580;28;20018;-82
2023/03/10 13:14:04;;;;;;;13.52;7.15;;;;;;;;;;10360272;28;20042;-78
2023/03/10 13:19:05;;;;;;;19.23;8.10;;;;;;;;;;10358361;28;20050;-81
2023/03/10 13:24:24;;;;;;;15.18;7.93;;;;;;;;;;10357812;28;20519;-80
2023/03/10 13:29:26;;;;;;;10.35;5.90;;;;;;;;;;10354651;28;20125;-79
2023/03/10 13:34:28;;;;;;;17.25;6.55;;;;;;;;;;10357430;28;20794;-78
2023/03/10 13:39:29;;;;;;;12.02;5.10;;;;;;;;;;10367725;28;20040;-84
2023/03/10 13:44:43;;;;;;;12.95;6.07;;;;;;;;;;10366899;28;20069;-79
2023/03/10 13:49:47;;;;;;;20.48;9.10;;;;;;;;;;10365116;28;20032;-80
2023/03/10 13:54:49;;;;;;;18.10;7.85;;;;;;;;;;10363219;28;20493;-79
2023/03/10 13:59:50;;;;;;;15.38;8.20;;;;;;;;;;10366327;28;20177;-80
2023/03/10 14:16:09;;;;;;;22.73;10.43;;;;;;;;;;10363668;28;20033;-79
2023/03/10 14:21:23;;;;;;;32.95;15.80;;;;;;;;;;10362413;28;20597;-79
2023/03/10 14:26:24;;;;;;;28.52;13.32;;;;;;;;;;10364134;28;20550;-79
2023/03/10 14:31:25;;;;;;;28.40;13.15;;;;;;;;;;10365671;28;20030;-79
2023/03/10 14:36:26;;;;;;;37.88;16.33;;;;;;;;;;10365437;28;20053;-80
2023/03/10 14:41:28;;;;;;;18.95;7.57;;;;;;;;;;10365187;28;20383;-80
2023/03/10 14:46:33;;;;;;;10.10;4.75;;;;;;;;;;10366312;28;20041;-79
2023/03/10 14:51:34;;;;;;;13.37;7.13;;;;;;;;;;10364806;28;20030;-83
2023/03/10 14:56:35;;;;;;;12.32;7.10;;;;;;;;;;10364622;28;20037;-81
2023/03/10 15:01:36;;;;;;;11.20;4.93;;;;;;;;;;10363043;28;20452;-79
2023/03/10 15:06:37;;;;;;;12.95;5.47;;;;;;;;;;10363544;28;20033;-81
2023/03/10 15:11:38;;;;;;;26.35;11.82;;;;;;;;;;10353635;28;20037;-80
2023/03/10 15:16:39;;;;;;;17.35;8.57;;;;;;;;;;10359815;28;20076;-80
2023/03/10 15:21:41;;;;;;;18.58;9.13;;;;;;;;;;10361637;28;20044;-80
2023/03/10 15:26:42;;;;;;;19.85;8.98;;;;;;;;;;10360203;28;21510;-79
2023/03/10 15:31:43;;;;;;;13.85;7.43;;;;;;;;;;10355132;28;20038;-82
2023/03/10 15:36:44;;;;;;;17.92;7.60;;;;;;;;;;10363447;28;20053;-79
2023/03/10 15:41:45;;;;;;;11.18;6.28;;;;;;;;;;10361919;28;20033;-78
2023/03/10 15:46:49;;;;;;;16.77;7.95;;;;;;;;;;10348689;28;20152;-79
2023/03/10 15:51:50;;;;;;;11.73;6.80;;;;;;;;;;10363178;28;20034;-78
2023/03/10 15:56:51;;;;;;;16.35;8.93;;;;;;;;;;10362302;28;20037;-79
2023/03/10 16:01:52;;;;;;;18.98;9.63;;;;;;;;;;10362634;28;20037;-78
2023/03/10 16:06:53;;;;;;;34.28;15.65;;;;;;;;;;10362507;28;20107;-78
2023/03/10 16:11:54;;;;;;;22.23;11.82;;;;;;;;;;10360103;28;20026;-77
2023/03/10 16:16:57;;;;;;;20.58;10.15;;;;;;;;;;10361452;28;20030;-78
2023/03/10 16:21:58;;;;;;;13.35;8.32;;;;;;;;;;10361003;28;20053;-78
2023/03/10 16:26:59;;;;;;;62.83;30.02;;;;;;;;;;10361600;28;20033;-78
2023/03/10 16:32:00;;;;;;;26.52;15.43;;;;;;;;;;10358689;28;20037;-77
2023/03/10 16:37:01;;;;;;;18.08;7.70;;;;;;;;;;10352052;28;20062;-79
2023/03/10 16:42:02;;;;;;;16.13;8.00;;;;;;;;;;10359853;28;20064;-81
2023/03/10 16:47:03;;;;;;;15.02;8.18;;;;;;;;;;10353184;28;20030;-79
2023/03/10 16:52:09;;;;;;;18.73;8.70;;;;;;;;;;10384645;22;20053;-81
2023/03/10 16:57:11;;;;;;;;;;;;;;;;;;10358456;28;20023;-80
2023/03/10 17:02:14;;;;;;;49.55;25.48;;;;;;;;;;10357768;28;19921;-80
2023/03/10 17:07:16;;;;;;;63.05;24.75;;;;;;;;;;10348386;28;20034;-81
2023/03/10 17:12:17;;;;;;;39.33;17.80;;;;;;;;;;10367915;28;20097;-81
2023/03/10 17:17:18;;;;;;;62.60;23.73;;;;;;;;;;10359289;28;20018;-80
2023/03/10 17:22:19;;;;;;;213.07;66.43;;;;;;;;;;10350996;28;20061;-81
2023/03/10 17:27:20;;;;;;;296.15;93.13;;;;;;;;;;10367772;28;20037;-82
2023/03/10 17:32:21;;;;;;;222.10;65.30;;;;;;;;;;10352974;28;20379;-80
2023/03/10 17:37:22;;;;;;;69.20;27.92;;;;;;;;;;10363500;28;20065;-81
2023/03/10 17:42:25;;;;;;;464.92;241.07;;;;;;;;;;10366041;28;20049;-80
2023/03/10 17:47:26;;;;;;;695.83;327.83;;;;;;;;;;10355254;28;20033;-81
2023/03/10 17:52:27;;;;;;;435.83;233.07;;;;;;;;;;10363381;28;20058;-80
2023/03/10 17:57:28;;;;;;;65.38;32.45;;;;;;;;;;10359578;28;20038;-79
2023/03/10 18:02:29;;;;;;;83.15;40.08;;;;;;;;;;10353769;28;20278;-82
2023/03/10 18:07:31;;;;;;;52.85;25.88;;;;;;;;;;10373434;28;20049;-80
2023/03/10 18:12:32;;;;;;;40.85;21.60;;;;;;;;;;10341848;28;20038;-81
2023/03/10 18:17:33;;;;;;;101.47;39.35;;;;;;;;;;10365629;28;20042;-81
2023/03/10 18:22:34;;;;;;;78.90;32.28;;;;;;;;;;10351874;28;20042;-79
2023/03/10 18:27:36;;;;;;;46.38;19.98;;;;;;;;;;10354976;28;20041;-79
2023/03/10 18:32:37;;;;;;;43.08;20.45;;;;;;;;;;10354607;28;20072;-79
2023/03/10 18:37:39;;;;;;;62.30;27.25;;;;;;;;;;10363699;28;20029;-80
2023/03/10 18:42:40;;;;;;;62.00;28.15;;;;;;;;;;10352574;28;20046;-80
2023/03/10 18:47:41;;;;;;;37.42;18.42;;;;;;;;;;10354377;28;20522;-79
2023/03/10 18:52:42;;;;;;;20.58;11.50;;;;;;;;;;10354079;28;20041;-80
2023/03/10 18:57:44;;;;;;;23.40;12.80;;;;;;;;;;10363592;28;20041;-80
2023/03/10 19:02:45;;;;;;;25.45;14.93;;;;;;;;;;10362635;28;20065;-79
2023/03/10 19:07:46;;;;;;;27.10;15.60;;;;;;;;;;10359164;28;20048;-82
2023/03/10 19:12:47;;;;;;;22.25;13.48;;;;;;;;;;10361582;28;20034;-81
2023/03/10 19:17:48;;;;;;;22.05;13.55;;;;;;;;;;10366994;28;20022;-78
2023/03/10 19:22:50;;;;;;;23.50;15.57;;;;;;;;;;10364446;28;20049;-79
2023/03/10 19:27:51;;;;;;;24.85;16.10;;;;;;;;;;10372687;28;20034;-78
2023/03/10 19:32:52;;;;;;;21.40;11.68;;;;;;;;;;10362814;28;20504;-80
2023/03/10 19:37:53;;;;;;;19.25;11.95;;;;;;;;;;10363436;28;20549;-78
2023/03/10 19:42:55;;;;;;;22.55;11.55;;;;;;;;;;10354968;28;20578;-78
2023/03/10 19:47:59;;;;;;;20.13;11.73;;;;;;;;;;10364019;28;20030;-78
2023/03/10 19:53:00;;;;;;;23.00;12.65;;;;;;;;;;10359203;28;20054;-81
2023/03/10 19:58:01;;;;;;;24.88;12.45;;;;;;;;;;10343297;28;20386;-80
2023/03/10 20:03:02;;;;;;;33.78;17.88;;;;;;;;;;10347287;28;20500;-78
2023/03/10 20:08:03;;;;;;;33.20;18.08;;;;;;;;;;10335108;28;20029;-80
2023/03/10 20:13:04;;;;;;;35.83;21.00;;;;;;;;;;10344126;28;20046;-80
2023/03/10 20:18:06;;;;;;;37.13;20.55;;;;;;;;;;10352406;28;20033;-79
2023/03/10 20:23:07;;;;;;;45.55;24.23;;;;;;;;;;10369442;22;20541;-78
2023/03/10 20:28:09;;;;;;;53.03;24.33;;;;;;;;;;10383361;28;20025;-79
2023/03/10 20:33:10;;;;;;;50.42;24.90;;;;;;;;;;10379291;28;20104;-78
2023/03/10 20:38:11;;;;;;;64.10;32.22;;;;;;;;;;10389353;28;20037;-79
2023/03/10 20:43:12;;;;;;;80.25;37.97;;;;;;;;;;10394396;28;20037;-79
2023/03/10 20:48:13;;;;;;;41.67;20.75;;;;;;;;;;10389673;28;20422;-78
2023/03/10 20:53:14;;;;;;;53.00;26.98;;;;;;;;;;10388651;28;20037;-79
2023/03/10 20:58:15;;;;;;;71.13;29.70;;;;;;;;;;10385826;28;20029;-79
2023/03/10 21:03:16;;;;;;;74.97;29.38;;;;;;;;;;10389499;28;20040;-80
2023/03/10 21:08:18;;;;;;;76.93;33.75;;;;;;;;;;10363125;28;20057;-79
2023/03/10 21:13:19;;;;;;;62.20;28.92;;;;;;;;;;10365280;23;20172;-79
2023/03/10 21:18:20;;;;;;;61.60;27.38;;;;;;;;;;10308668;28;20484;-78
2023/03/10 21:23:21;;;;;;;61.45;25.77;;;;;;;;;;10309180;28;20039;-80
2023/03/10 21:28:22;;;;;;;62.92;30.77;;;;;;;;;;10300846;28;20581;-80
2023/03/10 21:33:25;;;;;;;79.15;35.58;;;;;;;;;;10304655;28;20042;-80
2023/03/10 21:38:26;;;;;;;49.25;25.38;;;;;;;;;;10308647;28;20062;-77
2023/03/10 21:43:27;;;;;;;56.70;30.40;;;;;;;;;;10301408;28;20042;-80
2023/03/10 21:48:28;;;;;;;75.63;38.38;;;;;;;;;;10308424;28;20034;-79
2023/03/10 21:53:29;;;;;;;57.83;29.87;;;;;;;;;;10319061;28;20478;-79
2023/03/10 21:58:30;;;;;;;77.33;36.80;;;;;;;;;;10314773;28;20070;-78
2023/03/10 22:03:32;;;;;;;46.90;24.00;;;;;;;;;;10309965;28;20038;-79
2023/03/10 22:08:34;;;;;;;36.83;20.47;;;;;;;;;;10326659;28;20037;-79
2023/03/10 22:13:36;;;;;;;47.80;22.57;;;;;;;;;;10320905;28;20621;-79
2023/03/10 22:18:37;;;;;;;45.00;20.10;;;;;;;;;;10325978;28;20042;-80
2023/03/10 22:23:38;;;;;;;46.40;20.85;;;;;;;;;;10314853;28;20057;-80
2023/03/10 22:28:39;;;;;;;49.23;21.80;;;;;;;;;;10304782;28;20470;-80
2023/03/10 22:33:40;;;;;;;36.07;19.37;;;;;;;;;;10317748;28;20038;-78
2023/03/10 22:38:41;;;;;;;31.50;16.13;;;;;;;;;;10325588;28;20398;-78
2023/03/10 22:43:42;;;;;;;21.10;10.85;;;;;;;;;;10305700;28;20050;-79
2023/03/10 22:48:44;;;;;;;26.38;14.73;;;;;;;;;;10321485;28;20031;-79
2023/03/10 22:53:45;;;;;;;30.17;15.63;;;;;;;;;;10305842;28;20026;-79
2023/03/10 22:58:46;;;;;;;34.30;20.50;;;;;;;;;;10319443;28;20130;-81
2023/03/10 23:03:47;;;;;;;34.77;19.80;;;;;;;;;;10309325;28;20174;-80
2023/03/10 23:08:49;;;;;;;30.03;15.27;;;;;;;;;;10324494;28;20030;-79
2023/03/10 23:13:50;;;;;;;33.97;17.57;;;;;;;;;;10311254;28;20054;-79
2023/03/10 23:18:51;;;;;;;26.50;15.00;;;;;;;;;;10277710;28;20125;-80
2023/03/10 23:23:52;;;;;;;29.10;15.97;;;;;;;;;;10303058;28;20066;-80
2023/03/10 23:28:53;;;;;;;31.17;15.30;;;;;;;;;;10300465;28;20635;-80
2023/03/10 23:45:16;;;;;;;29.27;16.57;;;;;;;;;;10282214;28;20097;-81
2023/03/10 23:50:24;;;;;;;33.23;16.90;;;;;;;;;;10304387;28;20022;-81
2023/03/10 23:55:28;;;;;;;29.20;15.30;;;;;;;;;;10300586;28;20388;-81
